createdAt,value
2017-12-31T00:00:20.211Z,98716.69
2017-12-31T00:02:47.675Z,98725.95
2017-12-31T00:05:15.177Z,98732.02
2017-12-31T00:07:42.686Z,98744.30
2017-12-31T00:10:10.186Z,98740.48
2017-12-31T00:12:37.760Z,98751.47
2017-12-31T00:15:05.361Z,98785.24
2017-12-31T00:17:32.872Z,98782.79
2017-12-31T00:20:00.380Z,98792.92
2017-12-31T00:22:27.882Z,98803.30
2017-12-31T00:24:55.443Z,98797.58
2017-12-31T00:27:22.902Z,98799.53
2017-12-31T00:29:50.400Z,98807.38
2017-12-31T00:32:17.984Z,98817.72
2017-12-31T00:34:45.523Z,98823.80
2017-12-31T00:37:13.027Z,98818.68
2017-12-31T00:39:40.520Z,98827.91
2017-12-31T00:42:08.025Z,98830.75
2017-12-31T00:44:35.527Z,98832.96
2017-12-31T00:47:03.038Z,98834.83
2017-12-31T00:49:30.486Z,98839.89
2017-12-31T00:51:57.979Z,98847.30
2017-12-31T00:54:25.442Z,98857.43
2017-12-31T00:56:52.942Z,98854.83
2017-12-31T00:59:20.407Z,98871.11
2017-12-31T01:01:47.891Z,98869.98
2017-12-31T01:04:15.375Z,98875.44
2017-12-31T01:06:42.843Z,98878.13
2017-12-31T01:09:10.359Z,98888.55
2017-12-31T01:11:37.892Z,98894.47
2017-12-31T01:14:05.395Z,98900.47
2017-12-31T01:16:32.856Z,98901.08
2017-12-31T01:19:00.300Z,98898.01
2017-12-31T01:21:27.774Z,98892.89
2017-12-31T01:23:55.241Z,98894.06
2017-12-31T01:26:22.711Z,98903.39
2017-12-31T01:28:50.173Z,98915.59
2017-12-31T01:31:17.648Z,98916.80
2017-12-31T01:33:45.095Z,98916.69
2017-12-31T01:36:12.589Z,98922.21
2017-12-31T01:38:40.055Z,98933.37
2017-12-31T01:41:07.530Z,98928.02
2017-12-31T01:43:35.006Z,98933.31
2017-12-31T01:46:02.461Z,98944.44
2017-12-31T01:48:29.923Z,98947.80
2017-12-31T01:50:57.374Z,98949.84
2017-12-31T01:53:24.871Z,98947.09
2017-12-31T01:55:52.327Z,98954.58
2017-12-31T01:58:19.795Z,98959.23
2017-12-31T02:00:47.231Z,98966.32
2017-12-31T02:03:14.702Z,98962.38
2017-12-31T02:05:42.148Z,98965.70
2017-12-31T02:08:09.704Z,98967.05
2017-12-31T02:10:37.159Z,98970.48
2017-12-31T02:13:04.754Z,98973.39
2017-12-31T02:15:32.268Z,98978.60
2017-12-31T02:17:59.803Z,98979.94
2017-12-31T02:20:27.365Z,98981.51
2017-12-31T02:22:54.810Z,98976.66
2017-12-31T02:25:22.307Z,98985.47
2017-12-31T02:27:49.782Z,98995.56
2017-12-31T02:30:17.255Z,99000.67
2017-12-31T02:32:44.710Z,99004.99
2017-12-31T02:35:12.174Z,99013.89
2017-12-31T02:37:39.670Z,99017.67
2017-12-31T02:40:07.140Z,99010.09
2017-12-31T02:42:34.599Z,99010.95
2017-12-31T02:45:02.063Z,99010.87
2017-12-31T02:47:29.528Z,99010.36
2017-12-31T02:49:56.970Z,99014.86
2017-12-31T02:52:24.431Z,99017.05
2017-12-31T02:54:51.960Z,99016.53
2017-12-31T02:57:19.416Z,99010.55
2017-12-31T02:59:46.863Z,99013.20
2017-12-31T03:02:14.325Z,99026.42
2017-12-31T03:04:41.788Z,99033.73
2017-12-31T03:07:09.237Z,99030.64
2017-12-31T03:09:36.799Z,99028.31
2017-12-31T03:12:04.247Z,99022.76
2017-12-31T03:14:31.700Z,99034.48
2017-12-31T03:16:59.148Z,99033.30
2017-12-31T03:19:26.748Z,99037.44
2017-12-31T03:21:54.235Z,99031.47
2017-12-31T03:24:21.710Z,99038.50
2017-12-31T03:26:49.272Z,99045.58
2017-12-31T03:29:16.745Z,99042.90
2017-12-31T03:31:44.219Z,99039.86
2017-12-31T03:34:11.667Z,99044.88
2017-12-31T03:36:39.122Z,99049.31
2017-12-31T03:39:06.594Z,99052.80
2017-12-31T03:41:34.051Z,99061.62
2017-12-31T03:44:01.499Z,99057.27
2017-12-31T03:46:29.041Z,99051.94
2017-12-31T03:48:56.506Z,99061.19
2017-12-31T03:51:23.951Z,99063.13
2017-12-31T03:53:51.410Z,99073.92
2017-12-31T03:56:18.844Z,99070.80
2017-12-31T03:58:46.296Z,99077.36
2017-12-31T04:01:13.732Z,99085.44
2017-12-31T04:03:41.185Z,99086.06
2017-12-31T04:06:08.644Z,99080.16
2017-12-31T04:08:36.182Z,99082.34
2017-12-31T04:11:03.648Z,99083.27
2017-12-31T04:13:31.107Z,99083.23
2017-12-31T04:15:58.568Z,99080.00
2017-12-31T04:18:26.044Z,99074.36
2017-12-31T04:20:53.489Z,99077.88
2017-12-31T04:23:20.986Z,99075.70
2017-12-31T04:25:48.463Z,99082.29
2017-12-31T04:28:15.906Z,99082.19
2017-12-31T04:30:43.357Z,99089.03
2017-12-31T04:33:11.088Z,99092.60
2017-12-31T04:35:38.651Z,99093.33
2017-12-31T04:38:06.089Z,99097.72
2017-12-31T04:40:33.542Z,99099.55
2017-12-31T04:43:00.980Z,99109.13
2017-12-31T04:45:28.525Z,99119.02
2017-12-31T04:47:55.991Z,99120.95
2017-12-31T04:50:23.673Z,99120.50
2017-12-31T04:52:51.118Z,99129.75
2017-12-31T04:55:18.551Z,99125.50
2017-12-31T04:57:46.000Z,99138.62
2017-12-31T05:00:13.444Z,99139.89
2017-12-31T05:02:40.899Z,99139.48
2017-12-31T05:05:08.341Z,99142.98
2017-12-31T05:07:35.801Z,99142.57
2017-12-31T05:10:03.279Z,99136.28
2017-12-31T05:12:30.746Z,99142.38
2017-12-31T05:14:58.385Z,99143.48
2017-12-31T05:17:25.863Z,99150.08
2017-12-31T05:19:53.415Z,99148.98
2017-12-31T05:22:20.865Z,99158.34
2017-12-31T05:24:48.320Z,99162.59
2017-12-31T05:27:15.972Z,99161.56
2017-12-31T05:29:43.442Z,99159.56
2017-12-31T05:32:10.886Z,99166.20
2017-12-31T05:34:38.361Z,99167.81
2017-12-31T05:37:05.941Z,99165.13
2017-12-31T05:39:33.406Z,99158.06
2017-12-31T05:42:00.865Z,99164.98
2017-12-31T05:44:28.308Z,99167.06
2017-12-31T05:46:55.813Z,99170.08
2017-12-31T05:49:23.261Z,99170.28
2017-12-31T05:51:50.744Z,99172.45
2017-12-31T05:54:18.210Z,99171.90
2017-12-31T05:56:45.668Z,99166.47
2017-12-31T05:59:13.114Z,99175.95
2017-12-31T06:01:40.550Z,99172.77
2017-12-31T06:04:08.112Z,99170.14
2017-12-31T06:06:35.540Z,99171.08
2017-12-31T06:09:02.994Z,99183.22
2017-12-31T06:11:30.514Z,99182.83
2017-12-31T06:13:57.967Z,99186.98
2017-12-31T06:16:25.410Z,99184.24
2017-12-31T06:18:52.868Z,99189.32
2017-12-31T06:21:20.333Z,99184.80
2017-12-31T06:23:47.795Z,99185.51
2017-12-31T06:26:15.226Z,99189.87
2017-12-31T06:28:42.699Z,99194.16
2017-12-31T06:31:10.177Z,99196.31
2017-12-31T06:33:37.624Z,99196.35
2017-12-31T06:36:05.098Z,99192.66
2017-12-31T06:38:32.538Z,99190.85
2017-12-31T06:40:59.984Z,99193.24
2017-12-31T06:43:27.519Z,99198.40
2017-12-31T06:45:55.089Z,99197.89
2017-12-31T06:48:22.548Z,99194.23
2017-12-31T06:50:49.995Z,99195.84
2017-12-31T06:53:17.444Z,99198.55
2017-12-31T06:55:44.887Z,99198.25
2017-12-31T06:58:12.458Z,99199.23
2017-12-31T07:00:39.920Z,99196.13
2017-12-31T07:03:07.377Z,99199.45
2017-12-31T07:05:35.583Z,99205.52
2017-12-31T07:08:03.145Z,99197.89
2017-12-31T07:10:30.613Z,99195.03
2017-12-31T07:12:58.087Z,99201.31
2017-12-31T07:15:25.526Z,99199.19
2017-12-31T07:17:52.959Z,99195.03
2017-12-31T07:20:20.621Z,99192.55
2017-12-31T07:22:48.562Z,99194.03
2017-12-31T07:25:16.054Z,99192.11
2017-12-31T07:27:43.483Z,99195.17
2017-12-31T07:30:11.101Z,99194.86
2017-12-31T07:32:38.553Z,99189.98
2017-12-31T07:35:06.008Z,99193.59
2017-12-31T07:37:33.443Z,99202.44
2017-12-31T07:40:01.533Z,99200.28
2017-12-31T07:42:29.081Z,99208.53
2017-12-31T07:44:56.526Z,99199.49
2017-12-31T07:47:23.961Z,99201.57
2017-12-31T07:49:51.483Z,99194.78
2017-12-31T07:52:18.939Z,99205.45
2017-12-31T07:54:46.414Z,99209.11
2017-12-31T07:57:13.895Z,99202.55
2017-12-31T07:59:41.353Z,99205.09
2017-12-31T08:02:08.806Z,99207.73
2017-12-31T08:04:36.253Z,99213.90
2017-12-31T08:07:03.705Z,99210.84
2017-12-31T08:09:31.158Z,99215.44
2017-12-31T08:11:58.624Z,99215.83
2017-12-31T08:14:26.067Z,99209.61
2017-12-31T08:16:53.508Z,99215.86
2017-12-31T08:22:11.331Z,99203.35
2017-12-31T08:24:38.781Z,99202.83
2017-12-31T08:27:06.234Z,99209.98
2017-12-31T08:29:34.295Z,99210.16
2017-12-31T08:32:01.752Z,99202.50
2017-12-31T08:34:29.289Z,99206.11
2017-12-31T08:36:56.874Z,99199.69
2017-12-31T08:39:24.332Z,99201.29
2017-12-31T08:41:51.803Z,99199.56
2017-12-31T08:44:19.294Z,99195.50
2017-12-31T08:46:46.755Z,99202.89
2017-12-31T08:49:14.217Z,99196.93
2017-12-31T08:51:41.690Z,99197.24
2017-12-31T08:54:09.156Z,99191.00
2017-12-31T08:56:36.601Z,99196.98
2017-12-31T08:59:04.074Z,99195.45
2017-12-31T09:01:31.536Z,99191.91
2017-12-31T09:03:58.974Z,99198.24
2017-12-31T09:06:26.421Z,99198.68
2017-12-31T09:08:53.895Z,99189.67
2017-12-31T09:11:21.449Z,99185.89
2017-12-31T09:13:48.928Z,99189.05
2017-12-31T09:16:16.387Z,99183.66
2017-12-31T09:18:43.828Z,99180.27
2017-12-31T09:21:11.293Z,99183.45
2017-12-31T09:23:38.744Z,99177.50
2017-12-31T09:26:06.194Z,99174.38
2017-12-31T09:28:33.754Z,99167.94
2017-12-31T09:31:01.203Z,99172.95
2017-12-31T09:33:28.650Z,99167.06
2017-12-31T09:35:56.157Z,99162.61
2017-12-31T09:38:23.684Z,99172.19
2017-12-31T09:40:51.126Z,99172.42
2017-12-31T09:43:18.584Z,99162.42
2017-12-31T09:45:46.045Z,99170.78
2017-12-31T09:48:13.486Z,99150.46
2017-12-31T09:50:40.952Z,99142.55
2017-12-31T09:53:08.462Z,99142.78
2017-12-31T09:55:35.924Z,99146.45
2017-12-31T09:58:03.399Z,99134.80
2017-12-31T10:00:30.871Z,99136.07
2017-12-31T10:02:58.317Z,99135.89
2017-12-31T10:05:25.835Z,99124.77
2017-12-31T10:07:53.393Z,99132.40
2017-12-31T10:10:20.838Z,99126.47
2017-12-31T10:12:48.311Z,99132.33
2017-12-31T10:15:15.761Z,99126.97
2017-12-31T10:17:43.221Z,99130.32
2017-12-31T10:20:10.670Z,99118.56
2017-12-31T10:22:38.209Z,99116.63
2017-12-31T10:25:05.800Z,99112.57
2017-12-31T10:27:33.249Z,99114.55
2017-12-31T10:30:00.700Z,99111.84
2017-12-31T10:32:28.234Z,99115.94
2017-12-31T10:34:55.759Z,99100.97
2017-12-31T10:37:23.221Z,99102.71
2017-12-31T10:39:50.696Z,99106.59
2017-12-31T10:42:18.209Z,99097.64
2017-12-31T10:44:46.364Z,99108.48
2017-12-31T10:47:13.816Z,99108.24
2017-12-31T10:49:41.282Z,99097.10
2017-12-31T10:52:08.750Z,99088.39
2017-12-31T10:54:36.197Z,99099.92
2017-12-31T10:57:03.671Z,99084.83
2017-12-31T10:59:31.132Z,99081.89
2017-12-31T11:01:58.667Z,99077.47
2017-12-31T11:04:26.133Z,99085.45
2017-12-31T11:06:53.602Z,99070.73
2017-12-31T11:09:21.167Z,99082.41
2017-12-31T11:11:48.622Z,99075.97
2017-12-31T11:14:16.084Z,99072.41
2017-12-31T11:16:43.536Z,99072.77
2017-12-31T11:19:10.989Z,99077.81
2017-12-31T11:21:38.474Z,99078.27
2017-12-31T11:24:05.994Z,99066.86
2017-12-31T11:29:24.033Z,99069.66
2017-12-31T11:31:51.527Z,99078.02
2017-12-31T11:34:18.970Z,99065.66
2017-12-31T11:36:46.409Z,99059.25
2017-12-31T11:39:13.874Z,99063.78
2017-12-31T11:41:41.315Z,99064.66
2017-12-31T11:44:08.790Z,99066.52
2017-12-31T11:46:36.266Z,99070.98
2017-12-31T11:49:03.836Z,99073.14
2017-12-31T11:51:31.292Z,99077.52
2017-12-31T11:53:58.731Z,99069.81
2017-12-31T11:56:26.233Z,99067.38
2017-12-31T11:58:53.673Z,99073.31
2017-12-31T12:01:21.118Z,99067.65
2017-12-31T12:03:48.552Z,99056.68
2017-12-31T12:06:16.007Z,99058.77
2017-12-31T12:08:44.306Z,99063.41
2017-12-31T12:11:11.752Z,99054.98
2017-12-31T12:13:39.199Z,99059.94
2017-12-31T12:16:06.701Z,99056.78
2017-12-31T12:18:34.136Z,99059.28
2017-12-31T12:21:01.593Z,99047.71
2017-12-31T12:23:29.124Z,99046.98
2017-12-31T12:25:56.560Z,99052.12
2017-12-31T12:28:24.069Z,99062.97
2017-12-31T12:30:51.545Z,99066.92
2017-12-31T12:33:19.023Z,99065.41
2017-12-31T12:35:46.483Z,99055.05
2017-12-31T12:38:13.954Z,99068.31
2017-12-31T12:40:41.441Z,99059.50
2017-12-31T12:43:09.010Z,99066.84
2017-12-31T12:45:36.457Z,99059.88
2017-12-31T12:48:03.908Z,99059.50
2017-12-31T12:50:31.408Z,99065.19
2017-12-31T12:52:58.898Z,99064.61
2017-12-31T12:55:26.389Z,99063.63
2017-12-31T12:57:53.904Z,99056.48
2017-12-31T13:00:21.353Z,99059.75
2017-12-31T13:02:48.877Z,99064.05
2017-12-31T13:05:16.453Z,99062.28
2017-12-31T13:07:43.920Z,99074.61
2017-12-31T13:10:11.494Z,99063.02
2017-12-31T13:12:39.000Z,99057.23
2017-12-31T13:15:06.452Z,99053.83
2017-12-31T13:17:33.989Z,99049.78
2017-12-31T13:20:01.502Z,99049.07
2017-12-31T13:22:29.141Z,99057.59
2017-12-31T13:24:56.636Z,99056.17
2017-12-31T13:27:24.187Z,99056.30
2017-12-31T13:29:51.647Z,99056.49
2017-12-31T13:32:19.095Z,99060.38
2017-12-31T13:34:46.641Z,99079.89
2017-12-31T13:37:14.091Z,99058.76
2017-12-31T13:39:41.538Z,99060.03
2017-12-31T13:42:09.046Z,99051.08
2017-12-31T13:44:36.521Z,99063.44
2017-12-31T13:47:04.066Z,99068.31
2017-12-31T13:49:31.510Z,99061.34
2017-12-31T13:51:58.985Z,99067.30
2017-12-31T13:54:26.522Z,99062.03
2017-12-31T13:56:54.012Z,99066.17
2017-12-31T13:59:21.474Z,99063.66
2017-12-31T14:01:49.049Z,99082.31
2017-12-31T14:04:16.590Z,99078.84
2017-12-31T14:06:44.098Z,99067.83
2017-12-31T14:09:11.626Z,99061.16
2017-12-31T14:11:39.079Z,99060.20
2017-12-31T14:14:06.677Z,99061.66
2017-12-31T14:16:34.200Z,99054.95
2017-12-31T14:19:01.676Z,99041.30
2017-12-31T14:21:29.156Z,99040.83
2017-12-31T14:23:59.378Z,99037.85
2017-12-31T14:26:27.095Z,99041.55
2017-12-31T14:28:54.533Z,99047.53
2017-12-31T14:31:22.146Z,99049.99
2017-12-31T14:33:49.631Z,99045.79
2017-12-31T14:36:17.131Z,99041.24
2017-12-31T14:38:44.570Z,99046.06
2017-12-31T14:41:12.085Z,99056.91
2017-12-31T14:43:39.564Z,99038.77
2017-12-31T14:46:07.031Z,99043.41
2017-12-31T14:48:34.503Z,99036.28
2017-12-31T14:51:01.986Z,99039.84
2017-12-31T14:53:29.541Z,99022.95
2017-12-31T14:55:57.022Z,99027.05
2017-12-31T14:58:24.471Z,99027.27
2017-12-31T15:00:51.967Z,99045.33
2017-12-31T15:03:19.472Z,99047.63
2017-12-31T15:05:47.034Z,99028.88
2017-12-31T15:08:14.610Z,99045.58
2017-12-31T15:10:42.050Z,99028.22
2017-12-31T15:13:09.501Z,99033.39
2017-12-31T15:15:36.963Z,99035.53
2017-12-31T15:18:04.515Z,99028.80
2017-12-31T15:20:31.971Z,99027.81
2017-12-31T15:22:59.437Z,99048.22
2017-12-31T15:25:26.955Z,99038.19
2017-12-31T15:27:54.401Z,99037.71
2017-12-31T15:30:21.936Z,99041.49
2017-12-31T15:32:49.403Z,99031.22
2017-12-31T15:35:16.852Z,99039.16
2017-12-31T15:37:44.303Z,99045.80
2017-12-31T15:40:11.741Z,99043.68
2017-12-31T15:42:39.219Z,99045.52
2017-12-31T15:45:06.793Z,99032.11
2017-12-31T15:47:34.345Z,99042.22
2017-12-31T15:50:01.798Z,99038.58
2017-12-31T15:52:29.299Z,99038.10
2017-12-31T15:54:56.757Z,99040.34
2017-12-31T15:57:24.280Z,99032.84
2017-12-31T15:59:51.723Z,99038.30
2017-12-31T16:02:19.220Z,99028.34
2017-12-31T16:04:46.693Z,99032.98
2017-12-31T16:07:14.205Z,99033.94
2017-12-31T16:09:41.714Z,99033.37
2017-12-31T16:12:09.251Z,99040.66
2017-12-31T16:14:36.734Z,99038.13
2017-12-31T16:17:04.236Z,99033.09
2017-12-31T16:19:31.719Z,99031.11
2017-12-31T16:21:59.175Z,99024.30
2017-12-31T16:24:26.679Z,99024.47
2017-12-31T16:26:54.244Z,99026.84
2017-12-31T16:29:21.765Z,99022.42
2017-12-31T16:31:49.342Z,99010.73
2017-12-31T16:34:16.800Z,99010.97
2017-12-31T16:36:44.262Z,99012.47
2017-12-31T16:39:11.723Z,99014.20
2017-12-31T16:41:39.304Z,99022.44
2017-12-31T16:44:06.884Z,99016.03
2017-12-31T16:46:34.341Z,99011.77
2017-12-31T16:49:01.791Z,99007.40
2017-12-31T16:51:29.264Z,99004.16
2017-12-31T16:53:56.785Z,99011.34
2017-12-31T16:56:24.284Z,99014.98
2017-12-31T16:58:51.780Z,99015.94
2017-12-31T17:01:19.285Z,99010.34
2017-12-31T17:03:46.803Z,98990.50
2017-12-31T17:06:14.291Z,98993.09
2017-12-31T17:08:41.744Z,98980.23
2017-12-31T17:11:09.193Z,98981.82
2017-12-31T17:13:36.705Z,98981.66
2017-12-31T17:16:04.304Z,98983.16
2017-12-31T17:18:31.765Z,98981.03
2017-12-31T17:20:59.291Z,98981.42
2017-12-31T17:23:26.748Z,98973.38
2017-12-31T17:25:54.283Z,98963.58
2017-12-31T17:28:21.786Z,98968.55
2017-12-31T17:30:49.287Z,98963.09
2017-12-31T17:33:16.736Z,98970.15
2017-12-31T17:35:44.201Z,98965.31
2017-12-31T17:38:11.670Z,98956.78
2017-12-31T17:40:39.160Z,98956.14
2017-12-31T17:43:06.606Z,98957.48
2017-12-31T17:45:34.082Z,98962.16
2017-12-31T17:48:01.558Z,98960.47
2017-12-31T17:50:29.053Z,98959.77
2017-12-31T17:52:56.521Z,98958.20
2017-12-31T17:55:23.995Z,98958.98
2017-12-31T17:57:51.525Z,98953.28
2017-12-31T18:00:19.031Z,98956.92
2017-12-31T18:02:46.504Z,98949.50
2017-12-31T18:05:13.997Z,98953.27
2017-12-31T18:07:41.606Z,98960.52
2017-12-31T18:10:09.154Z,98944.69
2017-12-31T18:12:36.663Z,98946.28
2017-12-31T18:15:04.206Z,98942.15
2017-12-31T18:17:31.795Z,98942.45
2017-12-31T18:19:59.285Z,98950.59
2017-12-31T18:22:26.772Z,98953.97
2017-12-31T18:24:54.211Z,98960.90
2017-12-31T18:27:21.763Z,98956.00
2017-12-31T18:29:49.210Z,98949.97
2017-12-31T18:32:16.710Z,98943.48
2017-12-31T18:34:44.234Z,98950.99
2017-12-31T18:37:11.813Z,98944.57
2017-12-31T18:39:39.285Z,98948.70
2017-12-31T18:42:06.778Z,98946.65
2017-12-31T18:44:34.381Z,98937.25
2017-12-31T18:47:01.822Z,98942.16
2017-12-31T18:49:29.282Z,98946.59
2017-12-31T18:51:56.724Z,98933.15
2017-12-31T18:54:24.219Z,98944.30
2017-12-31T18:56:51.672Z,98931.61
2017-12-31T18:59:19.135Z,98935.04
2017-12-31T19:01:46.579Z,98931.81
2017-12-31T19:04:14.399Z,98922.80
2017-12-31T19:06:41.876Z,98917.47
2017-12-31T19:09:09.363Z,98921.11
2017-12-31T19:11:36.915Z,98919.47
2017-12-31T19:14:04.377Z,98907.83
2017-12-31T19:16:31.849Z,98909.08
2017-12-31T19:18:59.372Z,98894.48
2017-12-31T19:21:26.831Z,98891.73
2017-12-31T19:23:54.280Z,98891.26
2017-12-31T19:26:21.834Z,98887.16
2017-12-31T19:28:49.294Z,98893.57
2017-12-31T19:31:16.802Z,98895.14
2017-12-31T19:33:44.394Z,98892.84
2017-12-31T19:36:11.860Z,98898.28
2017-12-31T19:38:39.381Z,98893.61
2017-12-31T19:41:06.881Z,98901.45
2017-12-31T19:43:34.368Z,98894.73
2017-12-31T19:46:01.885Z,98892.22
2017-12-31T19:48:29.424Z,98893.17
2017-12-31T19:53:23.712Z,98892.27
2017-12-31T19:55:51.189Z,98894.73
2017-12-31T19:58:18.705Z,98882.34
2017-12-31T20:00:46.285Z,98884.67
2017-12-31T20:03:13.816Z,98882.07
2017-12-31T20:05:41.362Z,98874.97
2017-12-31T20:08:08.861Z,98887.45
2017-12-31T20:10:36.360Z,98874.79
2017-12-31T20:13:04.803Z,98881.34
2017-12-31T20:15:32.538Z,98877.00
2017-12-31T20:18:00.054Z,98873.80
2017-12-31T20:20:27.505Z,98871.89
2017-12-31T20:22:54.954Z,98885.24
2017-12-31T20:25:22.484Z,98861.23
2017-12-31T20:27:50.025Z,98862.80
2017-12-31T20:30:17.558Z,98866.71
2017-12-31T20:32:45.083Z,98861.81
2017-12-31T20:35:12.631Z,98856.66
2017-12-31T20:37:40.122Z,98859.34
2017-12-31T20:40:07.648Z,98855.23
2017-12-31T20:42:35.217Z,98863.06
2017-12-31T20:45:02.751Z,98843.21
2017-12-31T20:47:30.242Z,98840.75
2017-12-31T20:49:57.745Z,98843.60
2017-12-31T20:52:25.204Z,98841.70
2017-12-31T20:54:52.665Z,98848.80
2017-12-31T20:57:20.166Z,98839.09
2017-12-31T20:59:47.624Z,98836.39
2017-12-31T21:02:15.474Z,98843.52
2017-12-31T21:04:43.058Z,98837.84
2017-12-31T21:07:10.533Z,98830.34
2017-12-31T21:09:38.114Z,98831.86
2017-12-31T21:12:05.612Z,98834.69
2017-12-31T21:14:33.063Z,98828.52
2017-12-31T21:17:00.700Z,98824.73
2017-12-31T21:19:28.298Z,98831.61
2017-12-31T21:21:55.814Z,98819.89
2017-12-31T21:24:23.318Z,98823.67
2017-12-31T21:26:50.765Z,98825.29
2017-12-31T21:29:18.227Z,98832.27
2017-12-31T21:31:45.732Z,98821.59
2017-12-31T21:34:13.200Z,98825.15
2017-12-31T21:36:40.655Z,98836.86
2017-12-31T21:39:08.175Z,98834.65
2017-12-31T21:41:35.693Z,98835.18
2017-12-31T21:44:03.177Z,98840.45
2017-12-31T21:46:30.627Z,98836.28
2017-12-31T21:48:58.135Z,98836.81
2017-12-31T21:51:25.603Z,98835.03
2017-12-31T21:53:53.193Z,98839.95
2017-12-31T21:56:20.759Z,98843.77
2017-12-31T21:58:48.244Z,98836.70
2017-12-31T22:01:15.753Z,98837.00
2017-12-31T22:03:43.265Z,98827.52
2017-12-31T22:06:10.723Z,98832.88
2017-12-31T22:08:38.299Z,98822.70
2017-12-31T22:11:05.883Z,98821.80
2017-12-31T22:13:33.545Z,98825.11
2017-12-31T22:16:01.082Z,98830.87
2017-12-31T22:18:28.544Z,98823.38
2017-12-31T22:20:56.032Z,98834.06
2017-12-31T22:23:23.619Z,98827.56
2017-12-31T22:25:51.097Z,98831.97
2017-12-31T22:28:18.699Z,98837.56
2017-12-31T22:30:46.207Z,98840.41
2017-12-31T22:33:13.736Z,98841.97
2017-12-31T22:35:41.297Z,98834.30
2017-12-31T22:38:08.747Z,98841.02
2017-12-31T22:40:36.267Z,98830.53
2017-12-31T22:43:03.739Z,98824.70
2017-12-31T22:45:31.191Z,98823.27
2017-12-31T22:47:58.677Z,98822.88
2017-12-31T22:50:26.188Z,98811.59
2017-12-31T22:52:53.635Z,98815.27
2017-12-31T22:55:21.114Z,98806.55
2017-12-31T22:57:48.675Z,98806.98
2017-12-31T23:00:16.223Z,98815.99
2017-12-31T23:02:43.712Z,98816.43
2017-12-31T23:05:11.261Z,98813.30
2017-12-31T23:07:38.734Z,98811.31
2017-12-31T23:10:06.236Z,98813.44
2017-12-31T23:12:33.746Z,98817.47
2017-12-31T23:15:01.249Z,98808.28
2017-12-31T23:17:28.753Z,98807.13
2017-12-31T23:19:56.292Z,98805.14
2017-12-31T23:22:23.808Z,98799.30
2017-12-31T23:24:51.288Z,98800.70
2017-12-31T23:27:18.800Z,98807.41
2017-12-31T23:29:46.361Z,98801.79
2017-12-31T23:32:13.898Z,98810.39
2017-12-31T23:34:41.415Z,98808.91
2017-12-31T23:37:08.959Z,98810.11
2017-12-31T23:39:36.417Z,98810.59
2017-12-31T23:42:03.884Z,98803.05
2017-12-31T23:44:31.459Z,98801.88
2017-12-31T23:46:58.962Z,98790.14
2017-12-31T23:49:26.530Z,98788.06
2017-12-31T23:51:54.111Z,98791.41
2017-12-31T23:54:21.620Z,98779.88
2017-12-31T23:56:49.115Z,98783.39
2017-12-31T23:59:21.109Z,98789.23
